Time;durP1;ratioP1;P1;durP2;ratioP2;P2;SDS_P1;SDS_P2;PMS_P1;PMS_P2;Temp;Humidity;BMP_temperature;BMP_pressure;BME280_temperature;BME280_humidity;BME280_pressure;Samples;Min_cycle;Max_cycle;Signal;HPM_P1;HPM_P2
2024/02/09 00:01:40;;;;;;;;;7.00;3.33;;;;;-147.14;100.00;58812.66;5043077;28;65776;-49
2024/02/09 00:04:05;;;;;;;;;5.00;3.00;;;;;-147.14;100.00;58812.66;5050672;28;45741;-50
2024/02/09 00:06:30;;;;;;;;;6.00;5.00;;;;;-147.14;100.00;58812.66;5049148;28;45452;-51
2024/02/09 00:08:56;;;;;;;;;7.33;6.33;;;;;-147.14;100.00;58812.66;5040517;28;49221;-50
2024/02/09 00:11:21;;;;;;;;;6.33;4.33;;;;;-147.14;100.00;58812.66;5039937;28;70467;-50
2024/02/09 00:13:47;;;;;;;;;4.00;3.33;;;;;-147.14;100.00;58812.66;5047985;28;46060;-49
2024/02/09 00:16:12;;;;;;;;;6.67;4.67;;;;;-147.14;100.00;58812.66;5042860;28;45265;-51
2024/02/09 00:18:39;;;;;;;;;3.67;3.67;;;;;-147.14;100.00;58812.66;5046691;28;45356;-52
2024/02/09 00:21:05;;;;;;;;;4.00;3.00;;;;;-147.14;100.00;58812.66;5031054;28;45508;-49
2024/02/09 00:23:32;;;;;;;;;4.67;4.00;;;;;-147.14;100.00;58812.66;5045041;28;46276;-53
2024/02/09 00:26:00;;;;;;;;;4.00;4.00;;;;;-147.14;100.00;58812.66;5049030;28;45711;-50
2024/02/09 00:28:25;;;;;;;;;4.67;3.67;;;;;-147.14;100.00;58812.66;5049734;28;45549;-49
2024/02/09 00:30:50;;;;;;;;;6.00;4.00;;;;;-147.14;100.00;58812.66;5050864;28;67170;-51
2024/02/09 00:33:16;;;;;;;;;5.00;4.00;;;;;-147.14;100.00;58812.66;5041753;28;75685;-48
2024/02/09 00:35:42;;;;;;;;;6.00;4.00;;;;;-147.14;100.00;58812.66;5051531;28;72181;-49
2024/02/09 00:38:09;;;;;;;;;7.67;4.00;;;;;-147.14;100.00;58812.66;5044377;28;45524;-51
2024/02/09 00:40:35;;;;;;;;;4.00;4.00;;;;;-147.14;100.00;58812.66;5029602;28;45568;-51
2024/02/09 00:43:03;;;;;;;;;6.00;4.00;;;;;-147.14;100.00;58812.66;5046903;28;46050;-51
2024/02/09 00:45:30;;;;;;;;;3.00;3.00;;;;;-147.14;100.00;58812.66;5029958;28;46918;-48
2024/02/09 00:48:00;;;;;;;;;3.33;3.33;;;;;-147.14;100.00;58812.66;5045093;28;45702;-51
2024/02/09 00:50:26;;;;;;;;;6.00;3.00;;;;;-147.14;100.00;58812.66;5047258;28;45433;-48
2024/02/09 00:52:52;;;;;;;;;6.33;4.00;;;;;-147.14;100.00;58812.66;5047858;28;45552;-49
2024/02/09 00:55:18;;;;;;;;;5.00;5.00;;;;;-147.14;100.00;58812.66;5051205;28;45363;-50
2024/02/09 00:57:44;;;;;;;;;4.00;3.33;;;;;-147.14;100.00;58812.66;5046145;28;57232;-49
2024/02/09 01:00:13;;;;;;;;;4.00;3.00;;;;;-147.14;100.00;58812.66;5047661;28;45508;-48
2024/02/09 01:02:40;;;;;;;;;2.00;2.00;;;;;-147.14;100.00;58812.66;5025530;28;45729;-48
2024/02/09 01:05:05;;;;;;;;;5.33;3.33;;;;;-147.14;100.00;58812.66;5033463;28;45540;-47
2024/02/09 01:07:31;;;;;;;;;5.00;5.00;;;;;-147.14;100.00;58812.66;5025214;28;45398;-50
2024/02/09 01:09:57;;;;;;;;;4.00;4.00;;;;;-147.14;100.00;58812.66;5043000;28;55414;-51
2024/02/09 02:45:07;;;;;;;;;3.00;3.00;;;;;-147.14;100.00;58812.66;5026456;28;69227;-50
2024/02/09 02:47:32;;;;;;;;;3.67;2.00;;;;;-147.14;100.00;58812.66;5046492;28;45505;-51
2024/02/09 03:06:22;;;;;;;;;4.00;3.00;;;;;-147.14;100.00;58812.66;5046591;28;46835;-48
2024/02/09 03:08:48;;;;;;;;;5.33;4.00;;;;;-147.14;100.00;58812.66;5055834;28;45572;-50
2024/02/09 03:11:13;;;;;;;;;2.67;2.00;;;;;-147.14;100.00;58812.66;5045950;28;65752;-48
2024/02/09 03:13:38;;;;;;;;;3.67;2.00;;;;;-147.14;100.00;58812.66;5030499;28;73178;-48
2024/02/09 03:16:04;;;;;;;;;3.33;3.00;;;;;-147.14;100.00;58812.66;5040951;28;68287;-48
2024/02/09 03:18:30;;;;;;;;;1.33;1.33;;;;;-147.14;100.00;58812.66;5043934;28;45739;-51
2024/02/09 03:20:55;;;;;;;;;3.00;2.00;;;;;-147.14;100.00;58812.66;5042545;28;46979;-48
2024/02/09 03:23:21;;;;;;;;;2.67;1.67;;;;;-147.14;100.00;58812.66;5047108;28;51194;-51
2024/02/09 03:25:46;;;;;;;;;3.00;3.00;;;;;-147.14;100.00;58812.66;5048650;28;45497;-49
2024/02/09 03:28:12;;;;;;;;;6.33;3.00;;;;;-147.14;100.00;58812.66;5046027;28;45427;-49
2024/02/09 03:30:39;;;;;;;;;5.67;2.33;;;;;-147.14;100.00;58812.66;5049226;28;46876;-50
2024/02/09 03:33:04;;;;;;;;;3.33;1.00;;;;;-147.14;100.00;58812.66;5056471;28;45403;-51
2024/02/09 03:35:31;;;;;;;;;2.00;2.00;;;;;-147.14;100.00;58812.66;5047026;28;46742;-48
2024/02/09 03:37:57;;;;;;;;;4.00;3.00;;;;;-147.14;100.00;58812.66;5054619;28;45513;-48
2024/02/09 03:40:22;;;;;;;;;9.00;3.00;;;;;-147.14;100.00;58812.66;5042778;28;45342;-49
2024/02/09 03:42:47;;;;;;;;;2.00;2.00;;;;;-147.14;100.00;58812.66;5042429;28;45332;-51
2024/02/09 03:45:13;;;;;;;;;3.00;2.00;;;;;-147.14;100.00;58812.66;5047200;28;66729;-49
2024/02/09 03:47:39;;;;;;;;;3.67;2.00;;;;;-147.14;100.00;58812.66;5049266;28;45715;-52
2024/02/09 03:50:05;;;;;;;;;2.00;2.00;;;;;-147.14;100.00;58812.66;5042605;28;46118;-51
2024/02/09 03:52:31;;;;;;;;;3.67;2.33;;;;;-147.14;100.00;58812.66;5031184;28;45432;-51
2024/02/09 03:54:56;;;;;;;;;3.00;3.00;;;;;-147.14;100.00;58812.66;5050583;28;45520;-49
2024/02/09 03:57:23;;;;;;;;;1.00;1.00;;;;;-147.14;100.00;58812.66;5030629;28;45518;-48
2024/02/09 03:59:50;;;;;;;;;2.67;2.67;;;;;-147.14;100.00;58812.66;5042267;28;49377;-48
2024/02/09 04:02:15;;;;;;;;;3.00;3.00;;;;;-147.14;100.00;58812.66;5042925;28;45758;-50
2024/02/09 04:04:42;;;;;;;;;3.00;3.00;;;;;-147.14;100.00;58812.66;5042874;28;45654;-49
2024/02/09 04:07:10;;;;;;;;;2.00;2.00;;;;;-147.14;100.00;58812.66;5045316;28;45325;-48
2024/02/09 04:09:35;;;;;;;;;3.33;2.33;;;;;-147.14;100.00;58812.66;5038379;28;46219;-47
2024/02/09 04:12:02;;;;;;;;;2.67;2.00;;;;;-147.14;100.00;58812.66;5042829;28;45559;-50
2024/02/09 04:14:27;;;;;;;;;1.00;1.00;;;;;-147.14;100.00;58812.66;5022753;28;45542;-50
2024/02/09 04:16:53;;;;;;;;;2.00;2.00;;;;;-147.14;100.00;58812.66;5053327;28;45391;-47
2024/02/09 04:19:20;;;;;;;;;5.00;2.67;;;;;-147.14;100.00;58812.66;5042300;28;45571;-50
2024/02/09 04:21:49;;;;;;;;;1.00;1.00;;;;;-147.14;100.00;58812.66;5042965;28;45366;-50
2024/02/09 04:24:19;;;;;;;;;4.33;3.00;;;;;-147.14;100.00;58812.66;5046373;28;45558;-48
2024/02/09 04:26:45;;;;;;;;;1.67;1.67;;;;;-147.14;100.00;58812.66;5033251;28;45590;-47
2024/02/09 04:29:12;;;;;;;;;6.00;3.00;;;;;-147.14;100.00;58812.66;5049308;28;46677;-46
2024/02/09 04:31:40;;;;;;;;;4.00;3.00;;;;;-147.14;100.00;58812.66;5047603;28;45575;-51
2024/02/09 04:34:06;;;;;;;;;2.00;2.00;;;;;-147.14;100.00;58812.66;5042965;28;45652;-48
2024/02/09 04:36:33;;;;;;;;;3.67;2.00;;;;;-147.14;100.00;58812.66;5044113;28;45490;-47
2024/02/09 04:38:59;;;;;;;;;2.00;2.00;;;;;-147.14;100.00;58812.66;5045935;28;46121;-50
2024/02/09 04:41:24;;;;;;;;;1.67;1.67;;;;;-147.14;100.00;58812.66;5044918;28;45689;-49
2024/02/09 04:43:52;;;;;;;;;5.00;2.00;;;;;-147.14;100.00;58812.66;5045409;28;67299;-48
2024/02/09 04:46:24;;;;;;;;;2.00;2.00;;;;;-147.14;100.00;58812.66;5051770;28;46302;-51
2024/02/09 04:48:50;;;;;;;;;3.33;2.00;;;;;-147.14;100.00;58812.66;5042764;28;46173;-49
2024/02/09 04:51:16;;;;;;;;;2.33;2.00;;;;;-147.14;100.00;58812.66;5050126;28;45562;-51
2024/02/09 04:53:41;;;;;;;;;1.00;1.00;;;;;-147.14;100.00;58812.66;5050215;28;45878;-50
2024/02/09 04:56:06;;;;;;;;;6.00;3.00;;;;;-147.14;100.00;58812.66;5048177;28;71367;-48
2024/02/09 04:58:32;;;;;;;;;7.67;3.00;;;;;-147.14;100.00;58812.66;5044485;28;74390;-50
2024/02/09 05:00:57;;;;;;;;;3.00;3.00;;;;;-147.14;100.00;58812.66;5047187;28;45557;-49
2024/02/09 05:03:22;;;;;;;;;4.00;2.00;;;;;-147.14;100.00;58812.66;5040258;28;61465;-50
2024/02/09 05:05:48;;;;;;;;;2.00;2.00;;;;;-147.14;100.00;58812.66;5040282;28;63906;-48
2024/02/09 05:08:13;;;;;;;;;2.00;2.00;;;;;-147.14;100.00;58812.66;5051841;28;53862;-49
2024/02/09 05:10:39;;;;;;;;;3.00;3.00;;;;;-147.14;100.00;58812.66;5047862;28;73158;-50
2024/02/09 05:13:07;;;;;;;;;4.00;2.00;;;;;-147.14;100.00;58812.66;5047224;28;45613;-50
2024/02/09 05:15:33;;;;;;;;;3.00;3.00;;;;;-147.14;100.00;58812.66;5043413;28;45509;-48
2024/02/09 05:17:59;;;;;;;;;6.67;3.33;;;;;-147.14;100.00;58812.66;5040970;28;47104;-50
2024/02/09 05:20:24;;;;;;;;;3.00;2.67;;;;;-147.14;100.00;58812.66;5046295;28;45229;-48
2024/02/09 05:22:49;;;;;;;;;3.67;2.33;;;;;-147.14;100.00;58812.66;5031138;28;69120;-47
2024/02/09 05:25:15;;;;;;;;;2.67;2.00;;;;;-147.14;100.00;58812.66;5049292;28;45305;-50
2024/02/09 05:27:40;;;;;;;;;3.00;3.00;;;;;-147.14;100.00;58812.66;5047830;28;45380;-51
2024/02/09 05:30:09;;;;;;;;;2.33;1.67;;;;;-147.14;100.00;58812.66;5044278;28;45360;-49
2024/02/09 05:32:35;;;;;;;;;4.00;2.33;;;;;-147.14;100.00;58812.66;5044111;28;45392;-47
2024/02/09 05:35:00;;;;;;;;;5.33;2.67;;;;;-147.14;100.00;58812.66;5027658;28;45642;-51
2024/02/09 05:37:26;;;;;;;;;4.00;2.67;;;;;-147.14;100.00;58812.66;5049619;28;47611;-48
2024/02/09 05:39:52;;;;;;;;;3.33;1.67;;;;;-147.14;100.00;58812.66;5045072;28;46633;-49
2024/02/09 05:42:18;;;;;;;;;2.00;2.00;;;;;-147.14;100.00;58812.66;5026669;28;45547;-49
2024/02/09 05:44:43;;;;;;;;;4.00;2.00;;;;;-147.14;100.00;58812.66;5043177;28;45373;-48
2024/02/09 05:47:09;;;;;;;;;3.00;2.00;;;;;-147.14;100.00;58812.66;5048570;28;44923;-51
2024/02/09 05:49:37;;;;;;;;;2.00;2.00;;;;;-147.14;100.00;58812.66;5046476;28;72021;-48
2024/02/09 05:52:03;;;;;;;;;2.00;2.00;;;;;-147.14;100.00;58812.66;5049584;28;45392;-46
2024/02/09 05:54:29;;;;;;;;;2.00;1.33;;;;;-147.14;100.00;58812.66;5045232;28;45454;-48
2024/02/09 05:56:54;;;;;;;;;3.00;2.33;;;;;-147.14;100.00;58812.66;5053003;28;75588;-47
2024/02/09 05:59:21;;;;;;;;;5.00;1.00;;;;;-147.14;100.00;58812.66;5025171;28;55468;-48
2024/02/09 06:01:46;;;;;;;;;3.00;2.33;;;;;-147.14;100.00;58812.66;5046099;28;45545;-52
2024/02/09 06:04:13;;;;;;;;;1.00;1.00;;;;;-147.14;100.00;58812.66;5039670;28;45547;-51
2024/02/09 06:06:45;;;;;;;;;2.00;2.00;;;;;-147.14;100.00;58812.66;5047285;28;46545;-48
2024/02/09 06:09:11;;;;;;;;;4.00;3.00;;;;;-147.14;100.00;58812.66;5028361;28;45534;-50
2024/02/09 06:11:36;;;;;;;;;2.33;2.00;;;;;-147.14;100.00;58812.66;5028645;28;45491;-49
2024/02/09 06:14:02;;;;;;;;;4.33;3.00;;;;;-147.14;100.00;58812.66;5049559;28;45476;-49
2024/02/09 06:16:28;;;;;;;;;5.33;2.00;;;;;-147.14;100.00;58812.66;5046321;28;47028;-49
2024/02/09 06:18:53;;;;;;;;;1.00;1.00;;;;;-147.14;100.00;58812.66;5051000;28;45471;-51
2024/02/09 06:21:18;;;;;;;;;3.00;2.00;;;;;-147.14;100.00;58812.66;5048564;28;69290;-49
2024/02/09 06:23:45;;;;;;;;;2.33;1.67;;;;;-147.14;100.00;58812.66;5046904;28;45585;-49
2024/02/09 06:26:11;;;;;;;;;2.00;2.00;;;;;-147.14;100.00;58812.66;5043209;28;47211;-52
2024/02/09 06:28:36;;;;;;;;;2.33;2.00;;;;;-147.14;100.00;58812.66;5051172;28;45324;-50
2024/02/09 06:31:02;;;;;;;;;3.67;3.00;;;;;-147.14;100.00;58812.66;5053730;28;45761;-49
2024/02/09 06:33:27;;;;;;;;;3.00;3.00;;;;;-147.14;100.00;58812.66;5042138;28;45447;-48
2024/02/09 06:35:52;;;;;;;;;2.00;2.00;;;;;-147.14;100.00;58812.66;5048836;28;46384;-49
2024/02/09 06:38:18;;;;;;;;;3.67;3.33;;;;;-147.14;100.00;58812.66;5044493;28;53479;-47
2024/02/09 06:40:44;;;;;;;;;3.00;2.67;;;;;-147.14;100.00;58812.66;5058301;28;58380;-48
2024/02/09 06:43:09;;;;;;;;;4.00;4.00;;;;;-147.14;100.00;58812.66;5042156;28;45917;-50
2024/02/09 06:45:35;;;;;;;;;6.00;4.33;;;;;-147.14;100.00;58812.66;5044110;28;46228;-48
2024/02/09 06:48:05;;;;;;;;;3.67;3.00;;;;;-147.14;100.00;58812.66;5044364;28;45578;-51
2024/02/09 06:50:34;;;;;;;;;3.00;3.00;;;;;-147.14;100.00;58812.66;5055308;28;45537;-49
2024/02/09 06:52:59;;;;;;;;;3.67;3.00;;;;;-147.14;100.00;58812.66;5042106;28;45404;-49
2024/02/09 06:55:25;;;;;;;;;4.33;2.00;;;;;-147.14;100.00;58812.66;5041980;28;46336;-48
2024/02/09 06:57:50;;;;;;;;;4.67;3.67;;;;;-147.14;100.00;58812.66;5043973;28;72186;-47
2024/02/09 07:00:15;;;;;;;;;4.00;2.00;;;;;-147.14;100.00;58812.66;5048663;28;45499;-47
2024/02/09 07:02:42;;;;;;;;;2.00;2.00;;;;;-147.14;100.00;58812.66;5046783;28;45486;-48
2024/02/09 07:05:10;;;;;;;;;3.00;1.00;;;;;-147.14;100.00;58812.66;5024394;28;46903;-48
2024/02/09 07:07:38;;;;;;;;;2.00;2.00;;;;;-147.14;100.00;58812.66;5026546;28;45373;-48
2024/02/09 07:10:04;;;;;;;;;3.67;2.00;;;;;-147.14;100.00;58812.66;5024189;28;45761;-48
2024/02/09 07:12:30;;;;;;;;;2.00;2.00;;;;;-147.14;100.00;58812.66;5043431;28;45400;-47
2024/02/09 07:14:55;;;;;;;;;3.00;3.00;;;;;-147.14;100.00;58812.66;5039819;28;46253;-48
2024/02/09 07:17:23;;;;;;;;;2.67;2.67;;;;;-147.14;100.00;58812.66;5041680;28;45552;-50
2024/02/09 07:19:48;;;;;;;;;4.00;3.00;;;;;-147.14;100.00;58812.66;5041730;28;45792;-49
2024/02/09 07:22:13;;;;;;;;;4.33;2.33;;;;;-147.14;100.00;58812.66;5043974;28;45725;-47
2024/02/09 07:24:39;;;;;;;;;3.00;3.00;;;;;-147.14;100.00;58812.66;5044080;28;67836;-49
2024/02/09 07:27:04;;;;;;;;;4.00;2.00;;;;;-147.14;100.00;58812.66;5050358;28;45487;-47
2024/02/09 07:29:32;;;;;;;;;0.67;0.00;;;;;-147.14;100.00;58812.66;5042979;28;45392;-46
2024/02/09 07:31:57;;;;;;;;;5.00;3.00;;;;;-147.14;100.00;58812.66;5048427;28;45622;-47
2024/02/09 07:34:23;;;;;;;;;3.00;1.00;;;;;-147.14;100.00;58812.66;5046714;28;45400;-48
2024/02/09 07:36:48;;;;;;;;;2.33;2.33;;;;;-147.14;100.00;58812.66;5034672;28;67615;-48
2024/02/09 07:39:13;;;;;;;;;2.67;1.33;;;;;-147.14;100.00;58812.66;5050303;28;47404;-47
2024/02/09 07:41:39;;;;;;;;;2.00;2.00;;;;;-147.14;100.00;58812.66;5042141;28;45354;-46
2024/02/09 07:44:04;;;;;;;;;5.33;4.00;;;;;-147.14;100.00;58812.66;5045325;28;46144;-47
2024/02/09 07:46:30;;;;;;;;;4.00;4.00;;;;;-147.14;100.00;58812.66;5042444;28;74202;-47
2024/02/09 07:48:56;;;;;;;;;3.33;3.00;;;;;-147.14;100.00;58812.66;5050285;28;45436;-49
2024/02/09 07:51:21;;;;;;;;;1.00;1.00;;;;;-147.14;100.00;58812.66;5043663;28;68603;-49
2024/02/09 07:53:52;;;;;;;;;3.67;3.00;;;;;-147.14;100.00;58812.66;5043182;28;45808;-46
2024/02/09 07:56:24;;;;;;;;;2.67;2.67;;;;;-147.14;100.00;58812.66;5039685;28;45452;-46
2024/02/09 07:58:52;;;;;;;;;4.00;2.33;;;;;-147.14;100.00;58812.66;5036207;28;45408;-49
2024/02/09 08:01:21;;;;;;;;;6.00;3.33;;;;;-147.14;100.00;58812.66;5050199;28;45541;-48
2024/02/09 08:03:54;;;;;;;;;2.33;2.00;;;;;-147.14;100.00;58812.66;5035941;28;46400;-49
2024/02/09 08:06:21;;;;;;;;;5.00;2.00;;;;;-147.14;100.00;58812.66;5029438;28;45656;-48
2024/02/09 08:08:49;;;;;;;;;1.67;1.67;;;;;-147.14;100.00;58812.66;5053651;28;45399;-48
2024/02/09 08:11:14;;;;;;;;;2.33;2.00;;;;;-147.14;100.00;58812.66;5048993;28;45430;-48
2024/02/09 08:13:39;;;;;;;;;1.00;0.00;;;;;-147.14;100.00;58812.66;5046284;28;74452;-47
2024/02/09 08:16:05;;;;;;;;;5.33;3.67;;;;;-147.14;100.00;58812.66;5053831;28;66149;-50
2024/02/09 08:18:32;;;;;;;;;3.00;1.33;;;;;-147.14;100.00;58812.66;5047597;28;45608;-48
2024/02/09 08:20:58;;;;;;;;;2.00;2.00;;;;;-147.14;100.00;58812.66;5050093;28;45510;-46
2024/02/09 08:23:25;;;;;;;;;4.00;4.00;;;;;-147.14;100.00;58812.66;5048312;28;46030;-47
2024/02/09 08:25:51;;;;;;;;;3.00;1.33;;;;;-147.14;100.00;58812.66;5040666;28;46415;-48
2024/02/09 08:28:16;;;;;;;;;2.33;2.33;;;;;-147.14;100.00;58812.66;5031522;28;45505;-48
2024/02/09 08:30:41;;;;;;;;;4.33;3.00;;;;;-147.14;100.00;58812.66;5053595;28;70418;-48
2024/02/09 08:33:07;;;;;;;;;2.00;2.00;;;;;-147.14;100.00;58812.66;5052680;28;46081;-50
2024/02/09 08:35:32;;;;;;;;;3.00;2.00;;;;;-147.14;100.00;58812.66;5048165;28;69958;-48
2024/02/09 08:37:57;;;;;;;;;5.67;3.00;;;;;-147.14;100.00;58812.66;5052668;28;45490;-47
2024/02/09 08:40:25;;;;;;;;;4.00;2.00;;;;;-147.14;100.00;58812.66;5047738;28;69437;-49
2024/02/09 08:42:51;;;;;;;;;2.67;2.67;;;;;-147.14;100.00;58812.66;5045947;28;46629;-49
2024/02/09 08:45:16;;;;;;;;;5.67;3.00;;;;;-147.14;100.00;58812.66;5044647;28;45821;-47
2024/02/09 08:47:41;;;;;;;;;3.67;2.33;;;;;-147.14;100.00;58812.66;5050393;28;45357;-50
2024/02/09 08:50:07;;;;;;;;;3.33;2.00;;;;;-147.14;100.00;58812.66;5043549;28;66569;-52
2024/02/09 08:52:32;;;;;;;;;3.67;3.00;;;;;-147.14;100.00;58812.66;5023779;28;46839;-53
2024/02/09 08:54:58;;;;;;;;;3.00;2.00;;;;;-147.14;100.00;58812.66;5053798;28;45363;-48
2024/02/09 08:57:23;;;;;;;;;3.67;1.00;;;;;-147.14;100.00;58812.66;5048027;28;64400;-46
2024/02/09 08:59:49;;;;;;;;;3.00;2.00;;;;;-147.14;100.00;58812.66;5046039;28;70607;-49
2024/02/09 09:02:14;;;;;;;;;3.00;3.00;;;;;-147.14;100.00;58812.66;5054836;28;46435;-48
2024/02/09 09:04:40;;;;;;;;;0.33;0.00;;;;;-147.14;100.00;58812.66;5045121;28;45741;-47
2024/02/09 09:07:05;;;;;;;;;5.00;3.00;;;;;-147.14;100.00;58812.66;5044377;28;45646;-48
2024/02/09 09:09:30;;;;;;;;;1.00;1.00;;;;;-147.14;100.00;58812.66;5039608;28;60358;-47
2024/02/09 09:11:56;;;;;;;;;2.67;1.67;;;;;-147.14;100.00;58812.66;5050142;28;45479;-49
2024/02/09 09:14:22;;;;;;;;;2.33;2.33;;;;;-147.14;100.00;58812.66;5044459;28;71901;-49
2024/02/09 09:16:47;;;;;;;;;1.00;1.00;;;;;-147.14;100.00;58812.66;5045118;28;45428;-50
2024/02/09 09:19:14;;;;;;;;;1.00;1.00;;;;;-147.14;100.00;58812.66;5034521;28;45483;-48
2024/02/09 09:21:41;;;;;;;;;3.33;1.33;;;;;-147.14;100.00;58812.66;5043424;28;46158;-48
2024/02/09 09:24:08;;;;;;;;;1.67;1.67;;;;;-147.14;100.00;58812.66;5048045;28;45590;-48
2024/02/09 09:26:33;;;;;;;;;2.00;2.00;;;;;-147.14;100.00;58812.66;5046916;28;45496;-49
2024/02/09 09:28:59;;;;;;;;;4.67;2.33;;;;;-147.14;100.00;58812.66;5041293;28;45439;-48
2024/02/09 09:31:29;;;;;;;;;2.00;1.00;;;;;-147.14;100.00;58812.66;5031033;28;46200;-49
2024/02/09 09:33:58;;;;;;;;;4.00;2.00;;;;;-147.14;100.00;58812.66;5045207;28;45397;-50
2024/02/09 09:36:26;;;;;;;;;2.00;2.00;;;;;-147.14;100.00;58812.66;5047627;28;45301;-48
2024/02/09 09:38:51;;;;;;;;;5.00;3.00;;;;;-147.14;100.00;58812.66;5046648;28;46692;-50
2024/02/09 09:41:18;;;;;;;;;2.67;2.67;;;;;-147.14;100.00;58812.66;5048412;28;49163;-52
2024/02/09 09:43:43;;;;;;;;;3.33;1.33;;;;;-147.14;100.00;58812.66;5043756;28;45583;-49
2024/02/09 09:46:09;;;;;;;;;3.00;2.00;;;;;-147.14;100.00;58812.66;5031897;28;67504;-47
2024/02/09 09:48:37;;;;;;;;;2.67;2.67;;;;;-147.14;100.00;58812.66;5038050;28;45393;-48
2024/02/09 09:51:05;;;;;;;;;6.67;2.00;;;;;-147.14;100.00;58812.66;5045600;28;45399;-48
2024/02/09 09:53:38;;;;;;;;;1.00;1.00;;;;;-147.14;100.00;58812.66;5050169;28;45764;-49
2024/02/09 09:56:07;;;;;;;;;2.67;2.00;;;;;-147.14;100.00;58812.66;5036558;28;45517;-49
2024/02/09 09:58:35;;;;;;;;;5.33;3.00;;;;;-147.14;100.00;58812.66;5055310;28;45499;-51
2024/02/09 10:01:05;;;;;;;;;5.67;2.00;;;;;-147.14;100.00;58812.66;5053116;28;45466;-47
2024/02/09 10:03:31;;;;;;;;;3.00;2.00;;;;;-147.14;100.00;58812.66;5055438;28;45769;-49
2024/02/09 10:05:56;;;;;;;;;1.00;1.00;;;;;-147.14;100.00;58812.66;5053533;28;45892;-50
2024/02/09 10:08:22;;;;;;;;;3.33;2.33;;;;;-147.14;100.00;58812.66;5055034;28;45697;-48
2024/02/09 10:10:50;;;;;;;;;5.00;2.00;;;;;-147.14;100.00;58812.66;5053852;28;58792;-48
2024/02/09 10:13:16;;;;;;;;;1.67;1.67;;;;;-147.14;100.00;58812.66;5027876;28;45687;-49
2024/02/09 10:15:42;;;;;;;;;4.00;2.33;;;;;-147.14;100.00;58812.66;5046144;28;45848;-48
2024/02/09 10:18:10;;;;;;;;;3.00;3.00;;;;;-147.14;100.00;58812.66;5035559;28;45394;-48
2024/02/09 10:20:38;;;;;;;;;1.67;1.67;;;;;-147.14;100.00;58812.66;5028993;28;46819;-48
2024/02/09 10:23:04;;;;;;;;;2.33;1.00;;;;;-147.14;100.00;58812.66;5033631;28;45436;-57
2024/02/09 10:25:34;;;;;;;;;5.00;5.00;;;;;-147.14;100.00;58812.66;5025638;28;45577;-55
2024/02/09 10:28:00;;;;;;;;;3.33;1.00;;;;;-147.14;100.00;58812.66;5048763;28;45528;-56
2024/02/09 10:30:28;;;;;;;;;2.33;1.67;;;;;-147.14;100.00;58812.66;5048849;28;47123;-55
2024/02/09 10:32:54;;;;;;;;;2.00;1.67;;;;;-147.14;100.00;58812.66;5050116;28;45300;-55
2024/02/09 10:35:19;;;;;;;;;2.33;0.67;;;;;-147.14;100.00;58812.66;5054851;28;46615;-55
2024/02/09 10:37:45;;;;;;;;;4.00;3.00;;;;;-147.14;100.00;58812.66;5021907;28;45656;-55
2024/02/09 10:40:11;;;;;;;;;4.00;2.00;;;;;-147.14;100.00;58812.66;5022659;28;47581;-55
2024/02/09 10:42:40;;;;;;;;;2.67;1.33;;;;;-147.14;100.00;58812.66;5030024;28;45555;-56
2024/02/09 10:45:08;;;;;;;;;2.67;2.67;;;;;-147.14;100.00;58812.66;5056761;28;45466;-55
2024/02/09 10:47:37;;;;;;;;;6.67;3.33;;;;;-147.14;100.00;58812.66;5053549;28;45741;-54
2024/02/09 10:50:04;;;;;;;;;3.00;1.33;;;;;-147.14;100.00;58812.66;5035740;28;46049;-55
2024/02/09 10:52:30;;;;;;;;;4.67;2.33;;;;;-147.14;100.00;58812.66;5052470;28;45431;-55
2024/02/09 10:54:56;;;;;;;;;4.67;3.33;;;;;-147.14;100.00;58812.66;5036811;28;45428;-56
2024/02/09 10:57:26;;;;;;;;;7.00;4.33;;;;;-147.14;100.00;58812.66;5025014;28;45509;-56
2024/02/09 10:59:52;;;;;;;;;31.33;29.00;;;;;-147.14;100.00;58812.66;5052068;28;45535;-56
2024/02/09 11:02:18;;;;;;;;;10.67;9.33;;;;;-147.14;100.00;58812.66;5045931;28;45456;-56
2024/02/09 11:04:44;;;;;;;;;24.33;18.00;;;;;-147.14;100.00;58812.66;5029946;28;45734;-55
2024/02/09 11:07:10;;;;;;;;;6.67;4.67;;;;;-147.14;100.00;58812.66;5028259;28;45605;-56
2024/02/09 11:09:39;;;;;;;;;6.67;6.67;;;;;-147.14;100.00;58812.66;5034469;28;46039;-53
2024/02/09 11:12:08;;;;;;;;;15.00;12.00;;;;;-147.14;100.00;58812.66;5050554;28;45495;-55
2024/02/09 11:14:34;;;;;;;;;5.33;2.67;;;;;-147.14;100.00;58812.66;5048074;28;45422;-55
2024/02/09 11:17:06;;;;;;;;;11.67;9.00;;;;;-147.14;100.00;58812.66;5030259;28;45844;-55
2024/02/09 11:19:36;;;;;;;;;4.00;4.00;;;;;-147.14;100.00;58812.66;5023664;28;47113;-55
2024/02/09 11:22:01;;;;;;;;;4.33;3.00;;;;;-147.14;100.00;58812.66;5048411;28;45437;-55
2024/02/09 11:24:27;;;;;;;;;9.33;6.00;;;;;-147.14;100.00;58812.66;5041814;28;45477;-55
2024/02/09 11:26:54;;;;;;;;;10.33;8.33;;;;;-147.14;100.00;58812.66;5051569;28;45478;-55
2024/02/09 11:29:19;;;;;;;;;11.00;7.67;;;;;-147.14;100.00;58812.66;5028573;28;45484;-55
2024/02/09 11:32:02;;;;;;;;;20.67;16.67;;;;;-147.14;100.00;58812.66;5051921;28;45598;-56
2024/02/09 11:34:34;;;;;;;;;5.00;5.00;;;;;-147.14;100.00;58812.66;5030039;28;45412;-56
2024/02/09 11:37:00;;;;;;;;;5.00;3.67;;;;;-147.14;100.00;58812.66;5058098;28;45392;-55
2024/02/09 11:39:33;;;;;;;;;4.67;2.67;;;;;-147.14;100.00;58812.66;5045690;28;46177;-53
2024/02/09 11:42:00;;;;;;;;;3.67;3.00;;;;;-147.14;100.00;58812.66;5025177;28;45498;-56
2024/02/09 11:44:25;;;;;;;;;3.33;2.33;;;;;-147.14;100.00;58812.66;5055114;28;45582;-55
2024/02/09 11:46:52;;;;;;;;;10.33;7.00;;;;;-147.14;100.00;58812.66;5047328;28;45375;-56
2024/02/09 11:49:19;;;;;;;;;6.67;4.00;;;;;-147.14;100.00;58812.66;5031801;28;45752;-56
2024/02/09 11:51:44;;;;;;;;;5.67;3.33;;;;;-147.14;100.00;58812.66;5047028;28;45396;-55
2024/02/09 11:54:10;;;;;;;;;3.67;3.67;;;;;-147.14;100.00;58812.66;5046596;28;45375;-57
2024/02/09 11:56:36;;;;;;;;;3.33;3.33;;;;;-147.14;100.00;58812.66;5047744;28;45501;-56
2024/02/09 11:59:05;;;;;;;;;3.33;1.33;;;;;-147.14;100.00;58812.66;5042121;28;47073;-57
2024/02/09 12:01:30;;;;;;;;;2.67;1.33;;;;;-147.14;100.00;58812.66;5046947;28;45471;-56
2024/02/09 12:03:56;;;;;;;;;1.00;1.00;;;;;-147.14;100.00;58812.66;5047125;28;45337;-57
2024/02/09 12:06:22;;;;;;;;;3.67;3.67;;;;;-147.14;100.00;58812.66;5040082;28;45569;-56
2024/02/09 12:08:50;;;;;;;;;4.00;2.00;;;;;-147.14;100.00;58812.66;5053239;28;46051;-57
2024/02/09 12:11:20;;;;;;;;;4.67;3.00;;;;;-147.14;100.00;58812.66;5042127;28;45498;-57
2024/02/09 12:13:46;;;;;;;;;2.00;2.00;;;;;-147.14;100.00;58812.66;5046475;28;45516;-56
2024/02/09 12:16:16;;;;;;;;;4.00;0.67;;;;;-147.14;100.00;58812.66;5045677;28;45475;-57
2024/02/09 12:18:53;;;;;;;;;10.67;8.33;;;;;-147.14;100.00;58812.66;5025446;28;46150;-57
2024/02/09 12:21:18;;;;;;;;;2.33;2.33;;;;;-147.14;100.00;58812.66;5042905;28;45494;-54
2024/02/09 12:23:44;;;;;;;;;4.67;3.33;;;;;-147.14;100.00;58812.66;5044509;28;63497;-55
2024/02/09 12:26:12;;;;;;;;;6.67;3.33;;;;;-147.14;100.00;58812.66;5042336;28;45711;-55
2024/02/09 12:28:38;;;;;;;;;4.67;4.67;;;;;-147.14;100.00;58812.66;5049003;28;46818;-54
2024/02/09 12:31:04;;;;;;;;;3.33;3.33;;;;;-147.14;100.00;58812.66;5049263;28;45344;-55
2024/02/09 12:33:30;;;;;;;;;6.00;4.33;;;;;-147.14;100.00;58812.66;5045723;28;45597;-55
2024/02/09 12:36:07;;;;;;;;;3.00;1.67;;;;;-147.14;100.00;58812.66;5048661;28;45578;-55
2024/02/09 12:38:33;;;;;;;;;4.00;2.33;;;;;-147.14;100.00;58812.66;5044403;28;46599;-54
2024/02/09 12:40:58;;;;;;;;;10.33;4.00;;;;;-147.14;100.00;58812.66;5044023;28;45406;-55
2024/02/09 12:43:23;;;;;;;;;3.67;3.00;;;;;-147.14;100.00;58812.66;5045310;28;66513;-54
2024/02/09 12:45:49;;;;;;;;;3.67;2.00;;;;;-147.14;100.00;58812.66;5031302;28;46676;-55
2024/02/09 12:48:20;;;;;;;;;1.00;1.00;;;;;-147.14;100.00;58812.66;5045027;28;75579;-55
2024/02/09 12:50:55;;;;;;;;;4.00;3.00;;;;;-147.14;100.00;58812.66;5049400;28;45644;-55
2024/02/09 12:53:20;;;;;;;;;2.67;2.67;;;;;-147.14;100.00;58812.66;5037150;28;45370;-54
2024/02/09 12:55:46;;;;;;;;;3.33;3.33;;;;;-147.14;100.00;58812.66;5046430;28;45601;-54